createdAt,value
2023-05-02T00:00:05.565Z,2.17
2023-05-02T00:01:05.587Z,2.23
2023-05-02T00:02:05.665Z,2.20
2023-05-02T00:03:05.760Z,2.19
2023-05-02T00:04:05.792Z,2.15
2023-05-02T00:05:05.675Z,2.18
2023-05-02T00:06:05.741Z,2.21
2023-05-02T00:07:05.745Z,2.20
2023-05-02T00:08:05.734Z,2.12
2023-05-02T00:09:05.781Z,2.13
2023-05-02T00:10:05.768Z,2.14
2023-05-02T00:11:05.883Z,2.14
2023-05-02T00:12:05.866Z,2.15
2023-05-02T00:13:05.920Z,2.17
2023-05-02T00:14:05.943Z,2.19
2023-05-02T00:15:05.908Z,2.12
2023-05-02T00:16:05.952Z,2.16
2023-05-02T00:17:06.045Z,2.13
2023-05-02T00:18:06.038Z,2.11
2023-05-02T00:19:06.017Z,2.14
2023-05-02T00:20:06.106Z,2.10
2023-05-02T00:21:06.045Z,2.09
2023-05-02T00:22:06.095Z,2.09
2023-05-02T00:23:06.113Z,2.11
2023-05-02T00:24:06.166Z,2.09
2023-05-02T00:25:06.159Z,2.10
2023-05-02T00:26:06.153Z,2.11
2023-05-02T00:27:06.236Z,2.07
2023-05-02T00:28:06.256Z,2.05
2023-05-02T00:29:06.296Z,2.06
2023-05-02T00:30:06.301Z,2.08
2023-05-02T00:31:06.354Z,2.05
2023-05-02T00:32:06.365Z,2.08
2023-05-02T00:33:06.366Z,2.03
2023-05-02T00:34:06.386Z,2.05
2023-05-02T00:35:06.369Z,2.06
2023-05-02T00:36:06.426Z,2.09
2023-05-02T00:37:06.411Z,2.14
2023-05-02T00:38:06.446Z,2.13
2023-05-02T00:39:06.505Z,2.06
2023-05-02T00:40:06.527Z,2.06
2023-05-02T00:41:06.537Z,2.12
2023-05-02T00:42:06.572Z,2.06
2023-05-02T00:43:06.581Z,2.07
2023-05-02T00:44:06.965Z,1.99
2023-05-02T00:45:06.797Z,1.95
2023-05-02T00:46:06.696Z,2.07
2023-05-02T00:47:06.660Z,2.03
2023-05-02T00:48:06.825Z,1.99
2023-05-02T00:49:06.726Z,2.00
2023-05-02T00:50:06.754Z,1.95
2023-05-02T00:51:06.789Z,2.04
2023-05-02T00:52:06.798Z,2.00
2023-05-02T00:53:06.853Z,2.00
2023-05-02T00:54:06.838Z,2.00
2023-05-02T00:55:06.881Z,1.98
2023-05-02T00:56:06.873Z,2.04
2023-05-02T00:57:06.939Z,1.98
2023-05-02T00:58:06.972Z,1.98
2023-05-02T00:59:06.964Z,1.98
2023-05-02T01:00:07.062Z,2.02
2023-05-02T01:01:07.092Z,2.02
2023-05-02T01:02:07.209Z,2.01
2023-05-02T01:03:07.148Z,2.03
2023-05-02T01:04:07.285Z,1.98
2023-05-02T01:05:07.116Z,1.96
2023-05-02T01:06:07.229Z,1.92
2023-05-02T01:07:07.157Z,1.96
2023-05-02T01:08:07.218Z,1.91
2023-05-02T01:09:07.255Z,1.98
2023-05-02T01:10:07.206Z,1.96
2023-05-02T01:11:07.261Z,2.00
2023-05-02T01:12:07.292Z,1.93
2023-05-02T01:13:07.314Z,1.96
2023-05-02T01:14:07.323Z,1.95
2023-05-02T01:15:07.363Z,2.00
2023-05-02T01:16:07.424Z,1.93
2023-05-02T01:17:07.374Z,1.93
2023-05-02T01:18:07.447Z,1.98
2023-05-02T01:19:07.450Z,1.93
2023-05-02T01:20:07.483Z,1.92
2023-05-02T01:21:07.486Z,1.92
2023-05-02T01:22:07.547Z,1.92
2023-05-02T01:23:07.508Z,1.89
2023-05-02T01:24:07.867Z,1.95
2023-05-02T01:25:07.590Z,1.93
2023-05-02T01:26:07.578Z,1.91
2023-05-02T01:27:07.653Z,1.90
2023-05-02T01:28:07.670Z,1.91
2023-05-02T01:29:07.722Z,1.94
2023-05-02T01:30:07.751Z,1.86
2023-05-02T01:31:07.825Z,1.89
2023-05-02T01:32:07.875Z,1.91
2023-05-02T01:33:07.885Z,1.89
2023-05-02T01:34:07.802Z,1.88
2023-05-02T01:35:07.805Z,1.87
2023-05-02T01:36:07.848Z,1.87
2023-05-02T01:37:07.869Z,1.90
2023-05-02T01:38:07.877Z,1.92
2023-05-02T01:39:07.932Z,1.90
2023-05-02T01:40:07.932Z,1.92
2023-05-02T01:41:07.946Z,1.87
2023-05-02T01:42:08.008Z,1.88
2023-05-02T01:43:08.019Z,1.86
2023-05-02T01:44:08.052Z,1.83
2023-05-02T01:45:08.047Z,1.89
2023-05-02T01:46:08.061Z,1.93
2023-05-02T01:47:08.143Z,1.89
2023-05-02T01:48:08.192Z,1.95
2023-05-02T01:49:08.199Z,1.90
2023-05-02T01:50:08.206Z,1.93
2023-05-02T01:51:08.228Z,1.87
2023-05-02T01:52:08.232Z,1.90
2023-05-02T01:53:08.264Z,1.92
2023-05-02T01:54:08.309Z,1.92
2023-05-02T01:55:08.354Z,1.92
2023-05-02T01:56:08.356Z,1.93
2023-05-02T01:57:08.717Z,1.91
2023-05-02T01:58:08.382Z,1.90
2023-05-02T01:59:08.413Z,1.88
2023-05-02T02:00:08.436Z,1.90
2023-05-02T02:01:08.526Z,1.88
2023-05-02T02:02:08.489Z,1.91
2023-05-02T02:03:08.563Z,1.90
2023-05-02T02:04:08.571Z,1.89
2023-05-02T02:05:08.500Z,1.93
2023-05-02T02:06:08.616Z,1.86
2023-05-02T02:07:08.579Z,1.88
2023-05-02T02:08:08.632Z,1.91
2023-05-02T02:09:08.650Z,1.84
2023-05-02T02:10:08.650Z,1.92
2023-05-02T02:11:08.657Z,1.88
2023-05-02T02:12:08.713Z,1.88
2023-05-02T02:13:08.807Z,1.86
2023-05-02T02:14:08.780Z,1.86
2023-05-02T02:15:08.746Z,1.88
2023-05-02T02:16:09.157Z,1.86
2023-05-02T02:17:08.874Z,1.85
2023-05-02T02:18:08.910Z,1.86
2023-05-02T02:19:08.954Z,1.90
2023-05-02T02:20:08.888Z,1.86
2023-05-02T02:21:08.899Z,1.84
2023-05-02T02:22:08.911Z,1.86
2023-05-02T02:23:09.250Z,1.89
2023-05-02T02:24:08.996Z,1.89
2023-05-02T02:25:09.013Z,1.85
2023-05-02T02:26:09.026Z,1.86
2023-05-02T02:27:09.101Z,1.82
2023-05-02T02:28:09.104Z,1.84
2023-05-02T02:29:09.128Z,1.86
2023-05-02T02:30:09.153Z,1.89
2023-05-02T02:31:09.204Z,1.84
2023-05-02T02:32:09.222Z,1.88
2023-05-02T02:33:09.281Z,1.87
2023-05-02T02:34:09.237Z,1.92
2023-05-02T02:35:09.242Z,1.87
2023-05-02T02:36:09.365Z,1.88
2023-05-02T02:37:09.286Z,1.90
2023-05-02T02:38:09.318Z,1.86
2023-05-02T02:39:09.373Z,1.86
2023-05-02T02:40:09.363Z,1.89
2023-05-02T02:41:09.418Z,1.88
2023-05-02T02:42:09.427Z,1.88
2023-05-02T02:43:09.501Z,1.84
2023-05-02T02:44:09.904Z,1.89
2023-05-02T02:45:09.467Z,1.87
2023-05-02T02:46:09.593Z,1.89
2023-05-02T02:47:09.570Z,1.90
2023-05-02T02:48:09.633Z,1.94
2023-05-02T02:49:09.597Z,1.83
2023-05-02T02:50:09.648Z,1.91
2023-05-02T02:51:09.670Z,1.91
2023-05-02T02:52:09.672Z,1.87
2023-05-02T02:53:09.735Z,1.91
2023-05-02T02:54:23.001Z,1.85
2023-05-02T02:55:10.748Z,1.86
2023-05-02T02:56:09.740Z,1.86
2023-05-02T02:57:09.743Z,1.87
2023-05-02T02:58:09.751Z,1.86
2023-05-02T02:59:09.719Z,1.94
2023-05-02T03:00:09.724Z,1.90
2023-05-02T03:01:09.727Z,1.91
2023-05-02T03:02:09.792Z,1.94
2023-05-02T03:03:09.774Z,1.87
2023-05-02T03:04:09.707Z,1.89
2023-05-02T03:05:09.715Z,1.85
2023-05-02T03:06:09.649Z,1.92
2023-05-02T03:07:09.644Z,1.95
2023-05-02T03:08:09.650Z,1.93
2023-05-02T03:09:09.629Z,1.91
2023-05-02T03:10:09.618Z,1.97
2023-05-02T03:11:09.620Z,1.98
2023-05-02T03:12:09.644Z,1.90
2023-05-02T03:13:09.638Z,1.91
2023-05-02T03:14:09.661Z,2.00
2023-05-02T03:15:09.710Z,1.98
2023-05-02T03:16:09.761Z,1.97
2023-05-02T03:17:09.770Z,1.92
2023-05-02T03:18:09.818Z,1.90
2023-05-02T03:19:09.774Z,1.95
2023-05-02T03:20:09.836Z,1.98
2023-05-02T03:21:09.849Z,1.92
2023-05-02T03:22:09.881Z,2.01
2023-05-02T03:23:09.908Z,1.95
2023-05-02T03:24:09.993Z,1.95
2023-05-02T03:25:09.934Z,1.92
2023-05-02T03:26:09.982Z,2.01
2023-05-02T03:27:10.022Z,1.97
2023-05-02T03:28:10.043Z,1.96
2023-05-02T03:29:10.057Z,1.95
2023-05-02T03:30:10.077Z,1.95
2023-05-02T03:31:10.128Z,1.99
2023-05-02T03:32:10.256Z,1.95
2023-05-02T03:33:10.310Z,1.90
2023-05-02T03:34:10.171Z,1.90
2023-05-02T03:35:10.194Z,1.92
2023-05-02T03:36:10.220Z,1.97
2023-05-02T03:37:10.237Z,1.94
2023-05-02T03:38:10.313Z,1.91
2023-05-02T03:39:10.290Z,1.91
2023-05-02T03:40:10.315Z,1.96
2023-05-02T03:41:10.312Z,1.97
2023-05-02T03:42:10.399Z,1.94
2023-05-02T03:43:10.404Z,1.97
2023-05-02T03:44:10.416Z,1.96
2023-05-02T03:45:10.578Z,1.89
2023-05-02T03:46:10.502Z,1.91
2023-05-02T03:47:10.560Z,1.91
2023-05-02T03:48:10.595Z,1.86
2023-05-02T03:49:10.572Z,1.96
2023-05-02T03:50:10.600Z,1.88
2023-05-02T03:51:10.612Z,1.88
2023-05-02T03:52:10.641Z,1.89
2023-05-02T03:53:10.688Z,1.94
2023-05-02T03:54:10.758Z,1.94
2023-05-02T03:55:10.746Z,1.92
2023-05-02T03:56:11.043Z,1.91
2023-05-02T03:57:10.765Z,1.91
2023-05-02T03:58:10.831Z,1.92
2023-05-02T03:59:10.856Z,1.81
2023-05-02T04:00:10.873Z,1.61
2023-05-02T04:01:10.852Z,1.51
2023-05-02T04:02:10.919Z,1.45
2023-05-02T04:03:10.977Z,1.41
2023-05-02T04:04:10.993Z,1.38
2023-05-02T04:05:10.963Z,1.37
2023-05-02T04:06:10.991Z,1.33
2023-05-02T04:07:10.975Z,1.27
2023-05-02T04:08:10.993Z,1.27
2023-05-02T04:09:11.044Z,1.23
2023-05-02T04:10:11.022Z,1.24
2023-05-02T04:11:11.064Z,1.22
2023-05-02T04:12:11.036Z,1.21
2023-05-02T04:13:11.015Z,1.19
2023-05-02T04:14:11.073Z,1.19
2023-05-02T04:15:11.090Z,1.18
2023-05-02T04:16:11.096Z,1.19
2023-05-02T04:17:11.115Z,1.16
2023-05-02T04:18:11.141Z,1.14
2023-05-02T04:19:11.117Z,1.12
2023-05-02T04:20:11.136Z,1.14
2023-05-02T04:21:11.124Z,1.12
2023-05-02T04:22:11.122Z,1.11
2023-05-02T04:23:11.139Z,1.12
2023-05-02T04:24:11.201Z,1.13
2023-05-02T04:25:11.156Z,1.10
2023-05-02T04:26:11.145Z,1.09
2023-05-02T04:27:13.724Z,1.09
2023-05-02T04:28:11.248Z,1.12
2023-05-02T04:29:11.176Z,1.12
2023-05-02T04:30:11.117Z,1.11
2023-05-02T04:31:11.181Z,1.12
2023-05-02T04:32:11.148Z,1.11
2023-05-02T04:33:11.120Z,1.10
2023-05-02T04:34:11.119Z,1.12
2023-05-02T04:35:11.121Z,1.13
2023-05-02T04:36:11.062Z,1.14
2023-05-02T04:37:11.086Z,1.13
2023-05-02T04:38:11.095Z,1.13
2023-05-02T04:39:11.097Z,1.13
2023-05-02T04:40:11.112Z,1.11
2023-05-02T04:41:11.368Z,1.12
2023-05-02T04:42:11.064Z,1.15
2023-05-02T04:43:11.049Z,1.13
2023-05-02T04:44:11.086Z,1.15
2023-05-02T04:45:11.031Z,1.14
2023-05-02T04:46:11.067Z,1.15
2023-05-02T04:47:11.034Z,1.14
2023-05-02T04:48:11.069Z,1.16
2023-05-02T04:49:11.012Z,1.15
2023-05-02T04:50:10.977Z,1.20
2023-05-02T04:51:10.990Z,1.19
2023-05-02T04:52:10.980Z,1.24
2023-05-02T04:53:10.982Z,1.19
2023-05-02T04:54:10.987Z,1.18
2023-05-02T04:55:10.976Z,1.26
2023-05-02T04:56:10.936Z,1.26
2023-05-02T04:57:10.966Z,1.26
2023-05-02T04:58:10.948Z,1.20
2023-05-02T04:59:10.912Z,1.24
2023-05-02T05:00:11.296Z,1.23
2023-05-02T05:02:29.870Z,0.50
2023-05-02T05:03:30.007Z,0.50
2023-05-02T05:04:29.788Z,0.50
2023-05-02T05:05:29.892Z,0.50
2023-05-02T05:06:29.833Z,0.50
2023-05-02T05:07:29.756Z,0.52
2023-05-02T05:08:30.040Z,0.52
2023-05-02T05:09:29.819Z,0.51
2023-05-02T05:10:29.713Z,0.51
2023-05-02T05:11:29.738Z,0.53
2023-05-02T05:12:29.795Z,0.53
2023-05-02T05:13:29.714Z,0.56
2023-05-02T05:14:30.058Z,0.58
2023-05-02T05:15:29.685Z,0.58
2023-05-02T05:16:29.696Z,0.60
2023-05-02T05:17:29.681Z,0.57
2023-05-02T05:18:29.681Z,0.58
2023-05-02T05:19:29.686Z,0.54
2023-05-02T05:20:29.696Z,0.54
2023-05-02T05:21:29.648Z,0.45
2023-05-02T05:22:29.650Z,0.34
2023-05-02T05:23:29.618Z,0.34
2023-05-02T05:24:29.977Z,0.34
2023-05-02T05:25:29.617Z,0.34
2023-05-02T05:26:29.633Z,0.37
2023-05-02T05:27:29.677Z,0.43
2023-05-02T05:28:29.650Z,0.48
2023-05-02T05:29:29.607Z,0.50
2023-05-02T05:30:29.607Z,0.55
2023-05-02T05:31:29.970Z,0.62
2023-05-02T05:32:29.622Z,0.77
2023-05-02T05:33:29.926Z,0.84
2023-05-02T05:34:30.279Z,0.86
2023-05-02T05:35:29.560Z,0.99
2023-05-02T05:36:29.643Z,1.83
2023-05-02T05:37:29.955Z,1.90
2023-05-02T05:38:29.970Z,2.19
2023-05-02T05:39:30.066Z,2.20
2023-05-02T05:40:29.529Z,1.96
2023-05-02T05:41:29.824Z,1.57
2023-05-02T05:42:29.873Z,1.63
2023-05-02T05:43:29.523Z,1.49
2023-05-02T05:44:30.062Z,1.37
2023-05-02T05:45:29.496Z,1.30
2023-05-02T05:47:48.670Z,0.50
2023-05-02T05:48:48.438Z,0.50
2023-05-02T05:49:48.619Z,0.50
2023-05-02T05:50:48.448Z,0.50
2023-05-02T05:51:48.392Z,0.50
2023-05-02T05:52:48.368Z,0.51
2023-05-02T05:53:48.396Z,0.53
2023-05-02T05:54:48.411Z,0.55
2023-05-02T05:55:48.378Z,0.55
2023-05-02T05:56:49.444Z,0.48
2023-05-02T05:57:48.367Z,0.50
2023-05-02T05:58:48.341Z,0.48
2023-05-02T05:59:48.328Z,0.53
2023-05-02T06:00:48.302Z,0.55
2023-05-02T06:01:48.319Z,0.61
2023-05-02T06:02:48.463Z,0.69
2023-05-02T06:03:48.462Z,0.63
2023-05-02T06:04:48.345Z,0.57
2023-05-02T06:05:48.266Z,0.53
2023-05-02T06:06:48.298Z,0.51
2023-05-02T06:07:48.255Z,0.56
2023-05-02T06:08:48.278Z,0.51
2023-05-02T06:09:48.243Z,0.51
2023-05-02T06:10:48.269Z,0.55
2023-05-02T06:11:48.222Z,0.59
2023-05-02T06:12:49.210Z,0.62
2023-05-02T06:13:48.247Z,0.62
2023-05-02T06:14:48.613Z,0.62
2023-05-02T06:15:48.310Z,0.70
2023-05-02T06:16:48.259Z,0.66
2023-05-02T06:17:48.257Z,0.66
2023-05-02T06:18:48.212Z,0.84
2023-05-02T06:19:48.623Z,1.14
2023-05-02T06:20:48.332Z,1.23
2023-05-02T06:21:48.393Z,1.07
2023-05-02T06:22:48.495Z,0.77
2023-05-02T06:23:48.504Z,0.59
2023-05-02T06:24:48.657Z,0.54
2023-05-02T06:25:48.650Z,0.51
2023-05-02T06:26:48.695Z,0.65
2023-05-02T06:27:48.698Z,0.99
2023-05-02T06:28:48.775Z,1.88
2023-05-02T06:29:48.761Z,2.50
2023-05-02T06:30:48.796Z,2.80
2023-05-02T06:31:48.886Z,2.87
2023-05-02T06:32:48.995Z,2.87
2023-05-02T06:33:48.959Z,2.90
2023-05-02T06:34:48.991Z,2.61
2023-05-02T06:35:48.947Z,2.36
2023-05-02T06:36:49.011Z,1.96
2023-05-02T06:37:49.008Z,1.77
2023-05-02T06:38:49.107Z,1.71
2023-05-02T06:39:49.112Z,1.93
2023-05-02T06:40:49.117Z,2.17
2023-05-02T06:41:49.190Z,2.31
2023-05-02T06:42:49.198Z,2.46
2023-05-02T06:43:49.168Z,2.46
2023-05-02T06:44:49.623Z,2.54
2023-05-02T06:45:49.209Z,2.56
2023-05-02T06:46:49.220Z,2.56
2023-05-02T06:47:49.260Z,2.69
2023-05-02T06:48:49.246Z,2.67
2023-05-02T06:49:49.319Z,2.71
2023-05-02T06:50:50.054Z,2.63
2023-05-02T06:51:49.300Z,2.71
2023-05-02T06:52:49.342Z,2.61
2023-05-02T06:53:49.312Z,2.68
2023-05-02T06:54:50.333Z,2.81
2023-05-02T06:55:49.373Z,2.86
2023-05-02T06:56:49.326Z,2.81
2023-05-02T06:57:50.137Z,2.87
2023-05-02T06:58:49.454Z,2.87
2023-05-02T06:59:49.704Z,2.88
2023-05-02T07:00:49.449Z,2.87
2023-05-02T07:01:49.410Z,2.89
2023-05-02T07:02:50.172Z,2.89
2023-05-02T07:03:49.540Z,2.84
2023-05-02T07:04:49.452Z,2.80
2023-05-02T07:05:49.428Z,2.82
2023-05-02T07:06:49.530Z,2.85
2023-05-02T07:07:49.460Z,2.77
2023-05-02T07:08:49.468Z,2.80
2023-05-02T07:09:49.666Z,2.81
2023-05-02T07:10:49.608Z,2.75
2023-05-02T07:11:49.477Z,2.71
2023-05-02T07:12:49.500Z,2.72
2023-05-02T07:13:49.498Z,2.81
2023-05-02T07:14:49.484Z,2.89
2023-05-02T07:15:49.530Z,2.85
2023-05-02T07:16:49.615Z,2.79
2023-05-02T07:17:49.699Z,2.77
2023-05-02T07:18:49.549Z,2.61
2023-05-02T07:19:49.625Z,2.79
2023-05-02T07:20:49.755Z,2.89
2023-05-02T07:21:49.591Z,3.00
2023-05-02T07:22:49.639Z,2.25
2023-05-02T07:23:49.608Z,2.17
2023-05-02T07:24:49.652Z,2.43
2023-05-02T07:25:49.635Z,2.42
2023-05-02T07:26:49.645Z,2.58
2023-05-02T07:27:49.701Z,2.76
2023-05-02T07:28:49.648Z,3.05
2023-05-02T07:29:49.614Z,3.07
2023-05-02T07:30:50.151Z,3.36
2023-05-02T07:31:49.702Z,3.16
2023-05-02T07:32:49.748Z,2.43
2023-05-02T07:33:49.685Z,1.80
2023-05-02T07:34:49.688Z,1.63
2023-05-02T07:35:50.175Z,1.44
2023-05-02T07:36:49.746Z,2.02
2023-05-02T07:37:49.796Z,2.49
2023-05-02T07:38:49.782Z,2.58
2023-05-02T07:39:49.787Z,2.74
2023-05-02T07:40:50.141Z,2.74
2023-05-02T07:41:49.808Z,2.73
2023-05-02T07:42:49.800Z,2.66
2023-05-02T07:43:49.861Z,2.81
2023-05-02T07:44:49.823Z,3.02
2023-05-02T07:45:49.881Z,3.18
2023-05-02T07:46:49.844Z,3.19
2023-05-02T07:47:49.919Z,3.47
2023-05-02T07:48:49.790Z,3.32
2023-05-02T07:49:49.787Z,3.51
2023-05-02T07:50:50.169Z,3.80
2023-05-02T07:51:49.869Z,3.90
2023-05-02T07:52:49.848Z,4.06
2023-05-02T07:53:49.895Z,4.05
2023-05-02T07:54:49.910Z,4.17
2023-05-02T07:55:50.414Z,4.19
2023-05-02T07:56:49.972Z,4.04
2023-05-02T07:57:49.912Z,3.84
2023-05-02T07:58:49.922Z,4.09
2023-05-02T07:59:49.935Z,3.71
2023-05-02T08:00:49.913Z,4.07
2023-05-02T08:01:49.945Z,4.03
2023-05-02T08:02:50.001Z,3.44
2023-05-02T08:03:50.192Z,3.13
2023-05-02T08:04:50.020Z,4.03
2023-05-02T08:05:50.006Z,4.57
2023-05-02T08:06:50.133Z,5.73
2023-05-02T08:07:50.083Z,6.49
2023-05-02T08:08:50.171Z,7.27
2023-05-02T08:09:50.206Z,7.51
2023-05-02T08:10:50.258Z,7.45
2023-05-02T08:11:50.260Z,7.06
2023-05-02T08:12:50.272Z,7.22
2023-05-02T08:13:50.344Z,7.89
2023-05-02T08:14:50.388Z,8.04
2023-05-02T08:15:50.457Z,8.10
2023-05-02T08:16:50.520Z,8.25
2023-05-02T08:17:50.496Z,8.33
2023-05-02T08:18:50.403Z,8.04
2023-05-02T08:19:50.419Z,7.96
2023-05-02T08:20:50.537Z,7.91
2023-05-02T08:21:50.532Z,8.06
2023-05-02T08:22:50.505Z,8.25
2023-05-02T08:23:50.562Z,8.71
2023-05-02T08:24:50.569Z,8.73
2023-05-02T08:25:50.629Z,8.87
2023-05-02T08:26:50.677Z,8.76
2023-05-02T08:27:50.732Z,8.73
2023-05-02T08:28:50.791Z,8.75
2023-05-02T08:29:50.812Z,8.77
2023-05-02T08:30:50.841Z,8.65
2023-05-02T08:31:50.928Z,8.49
2023-05-02T08:32:51.072Z,8.96
2023-05-02T08:33:51.022Z,8.33
2023-05-02T08:34:51.164Z,5.43
2023-05-02T08:35:51.203Z,3.78
2023-05-02T08:36:51.153Z,2.68
2023-05-02T08:37:51.156Z,2.19
2023-05-02T08:38:51.158Z,1.97
2023-05-02T08:39:51.128Z,2.99
2023-05-02T08:40:52.142Z,3.59
2023-05-02T08:41:51.173Z,2.70
2023-05-02T08:42:51.119Z,2.24
2023-05-02T08:43:51.189Z,2.23
2023-05-02T08:44:51.160Z,2.26
2023-05-02T08:45:51.693Z,1.70
2023-05-02T08:46:51.259Z,1.27
2023-05-02T08:47:51.255Z,0.98
2023-05-02T08:48:51.228Z,0.79
2023-05-02T08:49:51.245Z,0.73
2023-05-02T08:50:51.712Z,0.67
2023-05-02T08:51:51.320Z,0.81
2023-05-02T08:52:51.316Z,1.11
2023-05-02T08:53:51.318Z,1.23
2023-05-02T08:54:51.319Z,1.39
2023-05-02T08:55:51.351Z,1.57
2023-05-02T08:56:51.702Z,1.73
2023-05-02T08:57:51.351Z,1.90
2023-05-02T08:58:51.374Z,1.95
2023-05-02T08:59:51.394Z,1.93
2023-05-02T09:00:51.492Z,2.06
2023-05-02T09:01:51.461Z,2.13
2023-05-02T09:02:51.548Z,2.54
2023-05-02T09:03:51.557Z,2.61
2023-05-02T09:04:51.579Z,2.44
2023-05-02T09:05:51.643Z,2.43
2023-05-02T09:06:51.828Z,2.98
2023-05-02T09:07:51.839Z,3.06
2023-05-02T09:08:51.872Z,4.12
2023-05-02T09:09:51.892Z,5.20
2023-05-02T09:10:51.982Z,5.85
2023-05-02T09:11:52.029Z,6.20
2023-05-02T09:12:52.104Z,6.27
2023-05-02T09:13:52.154Z,6.35
2023-05-02T09:14:52.226Z,6.51
2023-05-02T09:15:52.276Z,6.55
2023-05-02T09:16:52.358Z,6.89
2023-05-02T09:17:52.417Z,6.91
2023-05-02T09:18:52.459Z,6.99
2023-05-02T09:19:52.528Z,7.12
2023-05-02T09:20:52.571Z,6.96
2023-05-02T09:21:52.688Z,7.28
2023-05-02T09:22:52.654Z,5.15
2023-05-02T09:23:52.655Z,3.79
2023-05-02T09:24:52.612Z,4.31
2023-05-02T09:25:52.631Z,5.44
2023-05-02T09:26:52.709Z,6.25
2023-05-02T09:27:52.625Z,8.13
2023-05-02T09:28:52.678Z,8.98
2023-05-02T09:29:52.673Z,7.52
2023-05-02T09:30:52.805Z,6.56
2023-05-02T09:31:56.026Z,5.69
2023-05-02T09:32:52.779Z,5.71
2023-05-02T09:33:52.667Z,5.91
2023-05-02T09:34:52.668Z,6.57
2023-05-02T09:35:52.808Z,7.72
2023-05-02T09:36:52.679Z,6.84
2023-05-02T09:37:52.737Z,7.54
2023-05-02T09:38:52.641Z,8.30
2023-05-02T09:39:52.595Z,9.43
2023-05-02T09:40:52.664Z,10.69
2023-05-02T09:41:52.675Z,14.05
2023-05-02T09:42:52.708Z,16.37
2023-05-02T09:43:52.587Z,20.09
2023-05-02T09:44:52.580Z,14.58
2023-05-02T09:45:52.618Z,9.59
2023-05-02T09:46:52.543Z,6.69
2023-05-02T09:47:52.607Z,5.89
2023-05-02T09:48:52.564Z,6.51
2023-05-02T09:49:52.574Z,7.72
2023-05-02T09:50:52.573Z,7.63
2023-05-02T09:51:52.615Z,8.54
2023-05-02T09:52:52.555Z,8.52
2023-05-02T09:53:52.510Z,9.18
2023-05-02T09:54:52.515Z,9.70
2023-05-02T09:55:52.507Z,10.07
2023-05-02T09:56:52.469Z,10.02
2023-05-02T09:57:52.516Z,9.92
2023-05-02T09:58:52.495Z,10.35
2023-05-02T09:59:52.533Z,10.66
2023-05-02T10:00:52.578Z,11.30
2023-05-02T10:01:52.625Z,11.58
2023-05-02T10:02:52.754Z,11.53
2023-05-02T10:03:52.817Z,11.01
2023-05-02T10:04:52.822Z,10.99
2023-05-02T10:05:52.838Z,10.83
2023-05-02T10:06:53.013Z,10.37
2023-05-02T10:07:52.953Z,9.74
2023-05-02T10:08:53.070Z,10.09
2023-05-02T10:09:53.115Z,10.48
2023-05-02T10:10:53.117Z,10.55
2023-05-02T10:11:53.251Z,10.38
2023-05-02T10:12:53.256Z,10.02
2023-05-02T10:13:53.396Z,10.19
2023-05-02T10:14:53.412Z,10.44
2023-05-02T10:15:53.496Z,10.43
2023-05-02T10:16:53.495Z,10.46
2023-05-02T10:17:53.626Z,10.54
2023-05-02T10:18:53.632Z,11.32
2023-05-02T10:19:53.703Z,10.46
2023-05-02T10:20:53.764Z,10.45
2023-05-02T10:21:54.217Z,10.11
2023-05-02T10:22:53.876Z,10.25
2023-05-02T10:23:53.989Z,9.54
2023-05-02T10:24:54.038Z,9.45
2023-05-02T10:25:54.352Z,9.53
2023-05-02T10:26:54.203Z,9.14
2023-05-02T10:27:54.211Z,9.28
2023-05-02T10:28:54.279Z,9.61
2023-05-02T10:29:54.317Z,9.40
2023-05-02T10:30:54.397Z,9.21
2023-05-02T10:31:54.793Z,9.42
2023-05-02T10:32:54.551Z,9.36
2023-05-02T10:33:54.568Z,9.16
2023-05-02T10:34:54.613Z,9.03
2023-05-02T10:35:54.695Z,9.19
2023-05-02T10:36:55.250Z,12.39
2023-05-02T10:37:54.814Z,13.45
2023-05-02T10:38:54.864Z,8.86
2023-05-02T10:39:54.919Z,5.98
2023-05-02T10:40:54.912Z,5.21
2023-05-02T10:41:55.228Z,3.34
2023-05-02T10:42:54.878Z,3.22
2023-05-02T10:43:54.924Z,3.48
2023-05-02T10:44:54.899Z,3.81
2023-05-02T10:45:55.066Z,3.60
2023-05-02T10:46:55.001Z,3.87
2023-05-02T10:47:55.140Z,4.27
2023-05-02T10:48:55.152Z,4.35
2023-05-02T10:49:55.267Z,4.85
2023-05-02T10:50:55.137Z,5.08
2023-05-02T10:51:55.687Z,5.22
2023-05-02T10:52:55.298Z,5.54
2023-05-02T10:53:55.334Z,5.86
2023-05-02T10:54:55.368Z,5.91
2023-05-02T10:55:55.490Z,5.84
2023-05-02T10:56:55.573Z,5.84
2023-05-02T10:57:55.524Z,5.82
2023-05-02T10:58:55.621Z,5.39
2023-05-02T10:59:55.685Z,5.26
2023-05-02T11:00:55.842Z,5.02
2023-05-02T11:01:56.364Z,4.49
2023-05-02T11:02:56.023Z,4.40
2023-05-02T11:03:55.960Z,4.46
2023-05-02T11:04:56.069Z,4.66
2023-05-02T11:05:56.083Z,4.85
2023-05-02T11:06:56.256Z,4.76
2023-05-02T11:07:56.312Z,5.23
2023-05-02T11:08:56.279Z,4.76
2023-05-02T11:09:56.273Z,5.99
2023-05-02T11:10:56.334Z,6.27
2023-05-02T11:11:56.704Z,5.81
2023-05-02T11:12:56.452Z,5.28
2023-05-02T11:13:56.519Z,5.34
2023-05-02T11:14:56.567Z,5.27
2023-05-02T11:15:56.650Z,4.77
2023-05-02T11:16:56.757Z,4.80
2023-05-02T11:17:56.720Z,4.69
2023-05-02T11:18:56.779Z,4.53
2023-05-02T11:19:56.879Z,4.44
2023-05-02T11:20:56.915Z,4.65
2023-05-02T11:21:57.003Z,4.74
2023-05-02T11:22:57.057Z,5.38
2023-05-02T11:23:57.135Z,5.64
2023-05-02T11:24:57.200Z,5.75
2023-05-02T11:25:57.214Z,5.62
2023-05-02T11:26:57.281Z,5.18
2023-05-02T11:27:57.320Z,5.01
2023-05-02T11:28:57.442Z,5.23
2023-05-02T11:29:57.494Z,6.40
2023-05-02T11:30:58.063Z,10.07
2023-05-02T11:31:57.840Z,10.53
2023-05-02T11:32:57.618Z,8.19
2023-05-02T11:33:57.646Z,6.29
2023-05-02T11:34:58.139Z,3.09
2023-05-02T11:35:57.708Z,2.45
2023-05-02T11:36:58.202Z,1.22
2023-05-02T11:37:57.866Z,1.02
2023-05-02T11:38:57.965Z,1.59
2023-05-02T11:39:57.989Z,1.54
2023-05-02T11:40:58.008Z,1.90
2023-05-02T11:41:58.047Z,2.07
2023-05-02T11:42:58.704Z,2.04
2023-05-02T11:43:58.216Z,2.12
2023-05-02T11:44:58.587Z,2.16
2023-05-02T11:45:58.368Z,2.26
2023-05-02T11:46:58.415Z,2.28
2023-05-02T11:47:58.508Z,2.38
2023-05-02T11:48:58.527Z,2.59
2023-05-02T11:49:58.580Z,2.80
2023-05-02T11:50:58.603Z,1.02
2023-05-02T11:51:58.716Z,1.64
2023-05-02T11:52:58.727Z,1.72
2023-05-02T11:53:58.792Z,1.79
2023-05-02T11:54:58.953Z,1.84
2023-05-02T11:55:58.946Z,1.88
2023-05-02T11:56:58.994Z,1.81
2023-05-02T11:57:59.064Z,1.80
2023-05-02T11:58:59.122Z,1.75
2023-05-02T11:59:59.177Z,1.76
2023-05-02T12:00:59.223Z,1.74
2023-05-02T12:01:59.284Z,1.83
2023-05-02T12:02:59.441Z,1.91
2023-05-02T12:03:59.435Z,1.89
2023-05-02T12:04:59.717Z,1.61
2023-05-02T12:05:59.679Z,1.80
2023-05-02T12:06:59.691Z,1.94
2023-05-02T12:07:59.640Z,1.88
2023-05-02T12:08:59.755Z,1.91
2023-05-02T12:09:59.747Z,1.90
2023-05-02T12:10:59.815Z,1.94
2023-05-02T12:11:59.921Z,1.86
2023-05-02T12:12:59.963Z,1.86
2023-05-02T12:14:00.055Z,1.91
2023-05-02T12:15:00.280Z,2.02
2023-05-02T12:16:00.249Z,1.85
2023-05-02T12:17:00.241Z,2.20
2023-05-02T12:18:00.278Z,3.85
2023-05-02T12:19:00.311Z,4.26
2023-05-02T12:20:00.393Z,4.35
2023-05-02T12:21:00.411Z,5.25
2023-05-02T12:22:00.494Z,4.02
2023-05-02T12:23:00.563Z,4.16
2023-05-02T12:24:00.537Z,3.16
2023-05-02T12:25:00.788Z,2.91
2023-05-02T12:26:00.697Z,2.73
2023-05-02T12:27:00.730Z,2.54
2023-05-02T12:28:00.800Z,2.47
2023-05-02T12:29:00.887Z,0.95
2023-05-02T12:30:01.040Z,1.27
2023-05-02T12:31:00.966Z,1.51
2023-05-02T12:32:01.003Z,1.72
2023-05-02T12:33:01.009Z,1.02
2023-05-02T12:34:00.957Z,0.92
2023-05-02T12:35:00.942Z,1.22
2023-05-02T12:36:00.971Z,1.15
2023-05-02T12:37:00.965Z,1.32
2023-05-02T12:38:00.972Z,1.60
2023-05-02T12:39:00.951Z,1.60
2023-05-02T12:40:01.247Z,1.84
2023-05-02T12:41:00.966Z,1.73
2023-05-02T12:42:01.004Z,1.87
2023-05-02T12:43:00.933Z,1.85
2023-05-02T12:44:01.007Z,1.83
2023-05-02T12:45:00.954Z,1.93
2023-05-02T12:46:00.955Z,1.80
2023-05-02T12:47:01.060Z,1.90
2023-05-02T12:48:00.985Z,1.68
2023-05-02T12:49:01.014Z,1.53
2023-05-02T12:50:01.253Z,1.65
2023-05-02T12:51:01.058Z,1.74
2023-05-02T12:52:01.101Z,1.79
2023-05-02T12:53:01.132Z,1.91
2023-05-02T12:54:01.223Z,1.85
2023-05-02T12:55:01.204Z,1.89
2023-05-02T12:56:01.296Z,1.93
2023-05-02T12:57:01.345Z,2.05
2023-05-02T12:58:01.429Z,1.97
2023-05-02T12:59:01.624Z,1.90
2023-05-02T13:00:01.832Z,1.84
2023-05-02T13:01:01.660Z,1.88
2023-05-02T13:02:01.612Z,2.01
2023-05-02T13:03:01.765Z,2.20
2023-05-02T13:04:01.732Z,1.90
2023-05-02T13:05:01.725Z,2.05
2023-05-02T13:06:01.792Z,2.05
2023-05-02T13:07:01.914Z,2.15
2023-05-02T13:08:01.893Z,2.09
2023-05-02T13:09:02.021Z,1.93
2023-05-02T13:10:02.248Z,1.96
2023-05-02T13:11:02.109Z,2.07
2023-05-02T13:12:02.164Z,1.98
2023-05-02T13:13:02.214Z,2.36
2023-05-02T13:14:02.289Z,2.44
2023-05-02T13:15:02.353Z,1.91
2023-05-02T13:16:02.430Z,1.13
2023-05-02T13:17:02.468Z,1.32
2023-05-02T13:18:02.536Z,1.56
2023-05-02T13:19:02.311Z,2.42
2023-05-02T13:20:02.667Z,2.57